createdAt,value
2019-05-02T00:00:26.351Z,0.00
2019-05-02T00:01:26.524Z,0.00
2019-05-02T00:02:28.877Z,0.00
2019-05-02T00:03:27.824Z,0.00
2019-05-02T00:04:27.294Z,0.00
2019-05-02T00:05:27.452Z,0.00
2019-05-02T00:06:28.317Z,0.00
2019-05-02T00:07:27.567Z,0.00
2019-05-02T00:08:29.207Z,0.00
2019-05-02T00:09:30.008Z,0.00
2019-05-02T00:10:28.116Z,0.00
2019-05-02T00:11:28.280Z,0.00
2019-05-02T00:12:28.440Z,0.00
2019-05-02T00:13:28.578Z,0.00
2019-05-02T00:14:29.328Z,0.00
2019-05-02T00:15:33.167Z,0.00
2019-05-02T00:16:30.201Z,0.00
2019-05-02T00:17:29.444Z,0.00
2019-05-02T00:18:32.062Z,0.00
2019-05-02T00:19:32.292Z,0.00
2019-05-02T00:20:30.300Z,0.00
2019-05-02T00:21:32.840Z,0.00
2019-05-02T00:22:32.410Z,0.00
2019-05-02T00:23:30.629Z,0.00
2019-05-02T00:24:33.936Z,0.00
2019-05-02T00:25:32.875Z,0.00
2019-05-02T00:26:31.096Z,0.00
2019-05-02T00:27:32.732Z,0.00
2019-05-02T00:28:32.395Z,0.00
2019-05-02T00:29:31.529Z,0.00
2019-05-02T00:30:34.634Z,0.00
2019-05-02T00:31:32.830Z,0.00
2019-05-02T00:32:31.983Z,0.00
2019-05-02T00:33:34.408Z,0.00
2019-05-02T00:34:33.301Z,0.00
2019-05-02T00:35:33.277Z,0.00
2019-05-02T00:36:32.794Z,0.00
2019-05-02T00:37:33.293Z,0.00
2019-05-02T00:38:37.882Z,0.00
2019-05-02T00:39:35.283Z,0.00
2019-05-02T00:40:33.515Z,0.00
2019-05-02T00:41:38.457Z,0.00
2019-05-02T00:42:34.808Z,0.00
2019-05-02T00:43:36.240Z,0.00
2019-05-02T00:44:35.103Z,0.00
2019-05-02T00:45:34.796Z,0.00
2019-05-02T00:46:35.003Z,0.00
2019-05-02T00:47:35.611Z,0.00
2019-05-02T00:48:34.731Z,0.00
2019-05-02T00:49:35.386Z,0.00
2019-05-02T00:50:36.111Z,0.00
2019-05-02T00:51:35.358Z,0.00
2019-05-02T00:52:36.617Z,0.00
2019-05-02T00:53:36.661Z,0.00
2019-05-02T00:54:35.794Z,0.00
2019-05-02T00:55:35.939Z,0.00
2019-05-02T00:56:40.250Z,0.00
2019-05-02T00:57:37.276Z,0.00
2019-05-02T00:58:36.389Z,0.00
2019-05-02T00:59:37.785Z,0.00
2019-05-02T01:00:38.790Z,0.00
2019-05-02T01:01:37.002Z,0.00
2019-05-02T01:02:40.528Z,0.00
2019-05-02T01:03:38.307Z,0.00
2019-05-02T01:04:37.438Z,0.00
2019-05-02T01:05:40.034Z,0.00
2019-05-02T01:06:38.747Z,0.00
2019-05-02T01:07:38.304Z,0.00
2019-05-02T01:08:38.786Z,0.00
2019-05-02T01:09:42.322Z,0.00
2019-05-02T01:10:39.409Z,0.00
2019-05-02T01:11:38.631Z,0.00
2019-05-02T01:12:40.002Z,0.00
2019-05-02T01:13:41.035Z,0.00
2019-05-02T01:14:39.310Z,0.00
2019-05-02T01:15:44.100Z,0.00
2019-05-02T01:16:39.641Z,0.00
2019-05-02T01:17:39.797Z,0.00
2019-05-02T01:18:41.280Z,0.00
2019-05-02T01:19:41.209Z,0.00
2019-05-02T01:20:41.286Z,0.00
2019-05-02T01:21:41.299Z,0.00
2019-05-02T01:22:40.690Z,0.00
2019-05-02T01:23:41.311Z,0.00
2019-05-02T01:24:41.682Z,0.00
2019-05-02T01:25:42.257Z,0.00
2019-05-02T01:26:41.394Z,0.00
2019-05-02T01:27:42.558Z,0.00
2019-05-02T01:28:41.783Z,0.00
2019-05-02T01:29:41.962Z,0.00
2019-05-02T01:30:43.912Z,0.00
2019-05-02T01:31:42.316Z,0.00
2019-05-02T01:32:43.284Z,0.00
2019-05-02T01:33:43.610Z,0.00
2019-05-02T01:34:42.827Z,0.00
2019-05-02T01:35:42.979Z,0.00
2019-05-02T01:36:43.121Z,0.00
2019-05-02T01:37:43.275Z,0.00
2019-05-02T01:38:43.471Z,0.00
2019-05-02T01:39:44.115Z,0.00
2019-05-02T01:40:48.098Z,0.00
2019-05-02T01:41:44.994Z,0.00
2019-05-02T01:42:44.437Z,0.00
2019-05-02T01:43:45.315Z,0.00
2019-05-02T01:44:44.430Z,0.00
2019-05-02T01:45:46.624Z,0.00
2019-05-02T01:46:46.290Z,0.00
2019-05-02T01:47:44.875Z,0.00
2019-05-02T01:48:45.713Z,0.00
2019-05-02T01:49:46.232Z,0.00
2019-05-02T01:50:45.486Z,0.00
2019-05-02T01:51:47.657Z,0.00
2019-05-02T01:52:47.790Z,0.00
2019-05-02T01:53:46.015Z,0.00
2019-05-02T01:54:47.591Z,0.00
2019-05-02T01:55:46.356Z,0.00
2019-05-02T01:56:47.303Z,0.00
2019-05-02T01:57:46.698Z,0.00
2019-05-02T01:58:46.903Z,0.00
2019-05-02T01:59:47.070Z,0.00
2019-05-02T02:00:47.232Z,0.00
2019-05-02T02:01:47.381Z,0.00
2019-05-02T02:02:47.548Z,0.00
2019-05-02T02:03:47.764Z,0.00
2019-05-02T02:04:52.243Z,0.00
2019-05-02T02:05:49.108Z,0.00
2019-05-02T02:06:48.266Z,0.00
2019-05-02T02:07:50.868Z,0.00
2019-05-02T02:08:50.566Z,0.00
2019-05-02T02:09:48.798Z,0.00
2019-05-02T02:10:50.722Z,0.00
2019-05-02T02:11:51.210Z,0.00
2019-05-02T02:13:02.979Z,0.00
2019-05-02T02:13:50.503Z,0.00
2019-05-02T02:14:53.631Z,0.00
2019-05-02T02:15:51.901Z,0.00
2019-05-02T02:16:50.308Z,0.00
2019-05-02T02:17:51.479Z,0.00
2019-05-02T02:18:51.559Z,0.00
2019-05-02T02:19:50.787Z,0.00
2019-05-02T02:20:50.903Z,0.00
2019-05-02T02:21:51.086Z,0.00
2019-05-02T02:22:51.251Z,0.00
2019-05-02T02:23:51.401Z,0.00
2019-05-02T02:24:51.577Z,0.00
2019-05-02T02:25:51.710Z,0.00
2019-05-02T02:26:52.308Z,0.00
2019-05-02T02:27:55.023Z,0.00
2019-05-02T02:28:54.287Z,0.00
2019-05-02T02:29:53.521Z,0.00
2019-05-02T02:30:57.902Z,0.00
2019-05-02T02:31:54.986Z,0.00
2019-05-02T02:32:53.086Z,0.00
2019-05-02T02:33:53.206Z,0.00
2019-05-02T02:34:54.372Z,0.00
2019-05-02T02:35:53.474Z,0.00
2019-05-02T02:36:53.630Z,0.00
2019-05-02T02:37:55.655Z,0.00
2019-05-02T02:38:55.801Z,0.00
2019-05-02T02:39:56.297Z,0.00
2019-05-02T02:40:54.263Z,0.00
2019-05-02T02:41:54.420Z,0.00
2019-05-02T02:42:54.559Z,0.00
2019-05-02T02:44:00.435Z,0.00
2019-05-02T02:44:55.831Z,0.00
2019-05-02T02:45:58.133Z,0.00
2019-05-02T02:46:56.161Z,0.00
2019-05-02T02:48:00.057Z,0.00
2019-05-02T02:48:58.285Z,0.00
2019-05-02T02:50:02.543Z,0.00
2019-05-02T02:50:58.000Z,0.00
2019-05-02T02:51:58.022Z,0.00
2019-05-02T02:52:58.451Z,0.00
2019-05-02T02:54:03.973Z,0.00
2019-05-02T02:54:56.760Z,0.00
2019-05-02T02:56:02.026Z,0.00
2019-05-02T02:56:59.148Z,0.00
2019-05-02T02:57:58.554Z,0.00
2019-05-02T02:58:59.812Z,0.00
2019-05-02T03:00:06.551Z,0.00
2019-05-02T03:00:59.964Z,0.00
2019-05-02T03:02:08.958Z,0.00
2019-05-02T03:03:00.362Z,0.00
2019-05-02T03:04:01.990Z,0.00
2019-05-02T03:05:00.786Z,0.00
2019-05-02T03:06:05.270Z,0.00
2019-05-02T03:07:00.222Z,0.00
2019-05-02T03:08:05.454Z,0.00
2019-05-02T03:09:01.621Z,0.00
2019-05-02T03:10:06.061Z,0.00
2019-05-02T03:11:01.987Z,0.00
2019-05-02T03:12:02.300Z,0.00
2019-05-02T03:13:01.479Z,0.00
2019-05-02T03:14:07.221Z,0.00
2019-05-02T03:15:01.977Z,0.00
2019-05-02T03:16:07.013Z,0.00
2019-05-02T03:17:02.806Z,0.00
2019-05-02T03:18:02.327Z,0.00
2019-05-02T03:19:01.700Z,0.00
2019-05-02T03:20:03.888Z,0.00
2019-05-02T03:21:03.811Z,0.00
2019-05-02T03:22:04.104Z,0.00
2019-05-02T03:23:03.813Z,0.00
2019-05-02T03:24:05.556Z,0.00
2019-05-02T03:25:03.733Z,0.00
2019-05-02T03:26:07.987Z,0.00
2019-05-02T03:27:04.007Z,0.00
2019-05-02T03:28:03.834Z,0.00
2019-05-02T03:29:04.297Z,4.00
2019-05-02T03:30:03.582Z,4.00
2019-05-02T03:31:21.626Z,4.00
2019-05-02T03:32:15.345Z,4.00
2019-05-02T03:33:11.242Z,4.00
2019-05-02T03:34:07.309Z,0.00
2019-05-02T03:35:04.539Z,4.00
2019-05-02T03:36:04.725Z,4.00
2019-05-02T03:37:10.437Z,4.00
2019-05-02T03:38:07.821Z,4.00
2019-05-02T03:39:13.935Z,4.00
2019-05-02T03:40:07.822Z,4.00
2019-05-02T03:41:05.761Z,8.00
2019-05-02T03:42:06.312Z,4.00
2019-05-02T03:43:05.943Z,8.00
2019-05-02T03:44:11.297Z,8.00
2019-05-02T03:45:08.275Z,12.00
2019-05-02T03:46:07.315Z,12.00
2019-05-02T03:47:06.691Z,12.00
2019-05-02T03:48:07.833Z,16.00
2019-05-02T03:49:09.748Z,16.00
2019-05-02T03:50:09.486Z,16.00
2019-05-02T03:51:20.030Z,20.00
2019-05-02T03:52:09.664Z,24.00
2019-05-02T03:53:08.311Z,24.00
2019-05-02T03:54:10.321Z,28.00
2019-05-02T03:55:09.068Z,32.00
2019-05-02T03:56:11.515Z,32.00
2019-05-02T03:57:10.414Z,36.00
2019-05-02T03:58:14.065Z,44.00
2019-05-02T03:59:10.766Z,44.00
2019-05-02T04:00:13.751Z,48.00
2019-05-02T04:01:11.177Z,48.00
2019-05-02T04:02:14.229Z,56.00
2019-05-02T04:03:10.514Z,64.00
2019-05-02T04:04:14.293Z,72.00
2019-05-02T04:05:10.324Z,80.00
2019-05-02T04:06:13.997Z,92.00
2019-05-02T04:07:11.213Z,104.00
2019-05-02T04:08:19.698Z,104.00
2019-05-02T04:09:12.573Z,112.00
2019-05-02T04:10:13.552Z,108.00
2019-05-02T04:11:13.813Z,112.00
2019-05-02T04:12:17.683Z,120.00
2019-05-02T04:13:13.391Z,136.00
2019-05-02T04:14:15.892Z,144.00
2019-05-02T04:15:13.755Z,164.00
2019-05-02T04:16:15.515Z,180.00
2019-05-02T04:17:13.161Z,204.00
2019-05-02T04:18:15.544Z,244.00
2019-05-02T04:19:14.305Z,272.00
2019-05-02T04:20:12.902Z,288.00
2019-05-02T04:21:14.808Z,284.00
2019-05-02T04:22:13.051Z,260.00
2019-05-02T04:23:13.798Z,272.00
2019-05-02T04:24:15.918Z,280.00
2019-05-02T04:25:14.638Z,312.00
2019-05-02T04:26:14.422Z,312.00
2019-05-02T04:27:14.993Z,348.00
2019-05-02T04:28:14.527Z,372.00
2019-05-02T04:29:15.823Z,348.00
2019-05-02T04:30:14.609Z,380.00
2019-05-02T04:31:15.312Z,384.00
2019-05-02T04:32:15.856Z,396.00
2019-05-02T04:33:15.146Z,436.00
2019-05-02T04:34:17.907Z,440.00
2019-05-02T04:35:16.307Z,460.00
2019-05-02T04:36:17.881Z,472.00
2019-05-02T04:37:17.822Z,512.00
2019-05-02T04:38:21.334Z,552.00
2019-05-02T04:39:21.393Z,560.00
2019-05-02T04:40:18.455Z,588.00
2019-05-02T04:41:18.746Z,656.00
2019-05-02T04:42:22.995Z,672.00
2019-05-02T04:43:18.822Z,644.00
2019-05-02T04:44:18.920Z,692.00
2019-05-02T04:45:28.429Z,748.00
2019-05-02T04:46:26.900Z,772.00
2019-05-02T04:47:21.798Z,792.00
2019-05-02T04:48:19.336Z,888.00
2019-05-02T04:49:22.184Z,920.00
2019-05-02T04:50:25.005Z,892.00
2019-05-02T04:51:21.318Z,968.00
2019-05-02T04:52:21.116Z,1092.00
2019-05-02T04:53:26.005Z,1116.00
2019-05-02T04:54:25.904Z,1052.00
2019-05-02T04:55:28.299Z,1028.00
2019-05-02T04:56:20.840Z,1044.00
2019-05-02T04:57:20.312Z,1056.00
2019-05-02T04:58:27.571Z,1072.00
2019-05-02T04:59:23.198Z,1052.00
2019-05-02T05:00:21.033Z,1044.00
2019-05-02T05:01:21.356Z,1084.00
2019-05-02T05:02:34.198Z,1172.00
2019-05-02T05:03:22.554Z,1296.00
2019-05-02T05:04:20.776Z,1376.00
2019-05-02T05:05:25.849Z,1340.00
2019-05-02T05:06:23.206Z,1288.00
2019-05-02T05:07:21.343Z,1232.00
2019-05-02T05:08:26.381Z,1228.00
2019-05-02T05:09:23.632Z,1188.00
2019-05-02T05:10:21.884Z,1192.00
2019-05-02T05:11:24.928Z,1276.00
2019-05-02T05:12:23.335Z,1320.00
2019-05-02T05:13:23.265Z,1364.00
2019-05-02T05:14:23.673Z,1364.00
2019-05-02T05:15:37.136Z,1336.00
2019-05-02T05:16:24.930Z,1428.00
2019-05-02T05:17:25.216Z,1568.00
2019-05-02T05:18:27.287Z,1648.00
2019-05-02T05:19:31.025Z,1816.00
2019-05-02T05:20:24.622Z,1904.00
2019-05-02T05:21:24.777Z,1828.00
2019-05-02T05:22:24.926Z,1780.00
2019-05-02T05:23:24.111Z,1752.00
2019-05-02T05:24:25.054Z,1568.00
2019-05-02T05:25:27.686Z,1408.00
2019-05-02T05:26:24.691Z,1368.00
2019-05-02T05:27:24.835Z,1460.00
2019-05-02T05:28:26.935Z,1532.00
2019-05-02T05:29:26.984Z,1492.00
2019-05-02T05:30:25.295Z,1452.00
2019-05-02T05:31:26.418Z,1448.00
2019-05-02T05:32:28.199Z,1504.00
2019-05-02T05:33:25.744Z,1640.00
2019-05-02T05:34:28.472Z,1720.00
2019-05-02T05:35:28.211Z,1836.00
2019-05-02T05:36:32.625Z,1904.00
2019-05-02T05:37:29.556Z,1824.00
2019-05-02T05:38:28.678Z,1764.00
2019-05-02T05:39:28.805Z,1612.00
2019-05-02T05:40:31.856Z,1548.00
2019-05-02T05:41:27.904Z,1564.00
2019-05-02T05:42:30.140Z,1560.00
2019-05-02T05:43:28.577Z,1592.00
2019-05-02T05:44:31.284Z,1660.00
2019-05-02T05:45:29.851Z,1768.00
2019-05-02T05:46:28.258Z,1844.00
2019-05-02T05:47:28.310Z,1888.00
2019-05-02T05:48:32.199Z,1972.00
2019-05-02T05:49:29.615Z,2092.00
2019-05-02T05:50:32.318Z,2164.00
2019-05-02T05:51:29.972Z,2100.00
2019-05-02T05:52:33.075Z,1940.00
2019-05-02T05:53:30.334Z,1744.00
2019-05-02T05:54:32.983Z,1648.00
2019-05-02T05:55:31.589Z,1624.00
2019-05-02T05:56:32.425Z,1764.00
2019-05-02T05:57:32.046Z,1904.00
2019-05-02T05:58:30.294Z,1948.00
2019-05-02T05:59:32.053Z,1988.00
2019-05-02T06:00:31.622Z,2068.00
2019-05-02T06:01:33.783Z,2200.00
2019-05-02T06:02:31.846Z,2292.00
2019-05-02T06:03:33.910Z,2224.00
2019-05-02T06:04:33.421Z,2284.00
2019-05-02T06:05:33.276Z,2460.00
2019-05-02T06:06:33.614Z,2788.00
2019-05-02T06:07:33.704Z,2772.00
2019-05-02T06:08:34.039Z,2456.00
2019-05-02T06:09:32.502Z,2300.00
2019-05-02T06:10:32.417Z,2356.00
2019-05-02T06:11:32.578Z,2420.00
2019-05-02T06:12:35.464Z,2508.00
2019-05-02T06:13:33.877Z,2396.00
2019-05-02T06:14:34.576Z,2224.00
2019-05-02T06:15:38.941Z,2324.00
2019-05-02T06:16:35.438Z,2412.00
2019-05-02T06:17:33.646Z,2460.00
2019-05-02T06:18:36.409Z,2384.00
2019-05-02T06:19:35.943Z,2548.00
2019-05-02T06:20:34.203Z,2704.00
2019-05-02T06:21:34.370Z,2456.00
2019-05-02T06:22:34.526Z,2440.00
2019-05-02T06:23:37.242Z,2428.00
2019-05-02T06:24:36.858Z,2412.00
2019-05-02T06:25:36.777Z,2432.00
2019-05-02T06:26:36.255Z,2452.00
2019-05-02T06:27:35.365Z,2516.00
2019-05-02T06:28:36.228Z,2444.00
2019-05-02T06:29:37.729Z,2468.00
2019-05-02T06:30:35.953Z,2496.00
2019-05-02T06:31:38.255Z,2576.00
2019-05-02T06:32:38.205Z,2908.00
2019-05-02T06:33:36.453Z,3228.00
2019-05-02T06:34:38.821Z,3560.00
2019-05-02T06:35:38.744Z,4080.00
2019-05-02T06:36:38.077Z,3824.00
2019-05-02T06:37:40.169Z,3600.00
2019-05-02T06:38:37.303Z,3420.00
2019-05-02T06:39:37.453Z,3472.00
2019-05-02T06:40:39.344Z,3488.00
2019-05-02T06:41:39.756Z,3548.00
2019-05-02T06:42:38.122Z,3344.00
2019-05-02T06:43:41.220Z,3268.00
2019-05-02T06:44:40.276Z,3360.00
2019-05-02T06:45:39.645Z,3432.00
2019-05-02T06:46:38.659Z,3784.00
2019-05-02T06:47:41.572Z,3864.00
2019-05-02T06:48:40.008Z,3940.00
2019-05-02T06:49:39.129Z,3692.00
2019-05-02T06:50:40.573Z,3548.00
2019-05-02T06:51:39.519Z,3540.00
2019-05-02T06:52:39.693Z,3680.00
2019-05-02T06:53:41.304Z,3980.00
2019-05-02T06:54:41.973Z,5016.00
2019-05-02T06:55:40.194Z,6348.00
2019-05-02T06:56:43.078Z,6312.00
2019-05-02T06:57:42.609Z,5672.00
2019-05-02T06:58:42.037Z,5640.00
2019-05-02T06:59:42.038Z,5412.00
2019-05-02T07:00:56.511Z,5284.00
2019-05-02T07:01:43.324Z,4696.00
2019-05-02T07:02:41.457Z,4864.00
2019-05-02T07:03:46.062Z,4920.00
2019-05-02T07:04:42.748Z,4928.00
2019-05-02T07:05:41.847Z,4664.00
2019-05-02T07:06:57.557Z,4708.00
2019-05-02T07:07:44.217Z,5020.00
2019-05-02T07:08:42.439Z,5824.00
2019-05-02T07:09:42.702Z,6844.00
2019-05-02T07:10:44.882Z,7564.00
2019-05-02T07:11:56.400Z,7100.00
2019-05-02T07:12:46.131Z,6224.00
2019-05-02T07:13:45.231Z,5516.00
2019-05-02T07:14:45.775Z,5488.00
2019-05-02T07:15:43.624Z,5788.00
2019-05-02T07:16:43.780Z,6024.00
2019-05-02T07:17:43.990Z,5948.00
2019-05-02T07:18:47.389Z,6576.00
2019-05-02T07:19:46.398Z,8180.00
2019-05-02T07:20:44.497Z,8516.00
2019-05-02T07:21:44.697Z,6864.00
2019-05-02T07:22:45.698Z,6568.00
2019-05-02T07:23:48.712Z,6620.00
2019-05-02T07:24:47.175Z,6668.00
2019-05-02T07:25:45.386Z,7060.00
2019-05-02T07:26:45.560Z,6756.00
2019-05-02T07:27:45.697Z,6244.00
2019-05-02T07:28:47.480Z,7040.00
2019-05-02T07:29:46.072Z,7992.00
2019-05-02T07:30:46.234Z,8656.00
2019-05-02T07:31:47.745Z,10196.00
2019-05-02T07:32:47.594Z,11976.00
2019-05-02T07:33:46.698Z,11756.00
2019-05-02T07:34:48.113Z,9896.00
2019-05-02T07:35:48.029Z,9512.00
2019-05-02T07:36:47.246Z,8928.00
2019-05-02T07:37:48.798Z,7820.00
2019-05-02T07:38:48.628Z,7160.00
2019-05-02T07:39:47.869Z,6788.00
2019-05-02T07:40:48.251Z,7092.00
2019-05-02T07:41:49.274Z,6912.00
2019-05-02T07:42:48.415Z,6560.00
2019-05-02T07:43:52.196Z,6228.00
2019-05-02T07:44:49.692Z,8068.00
2019-05-02T07:45:48.947Z,8532.00
2019-05-02T07:46:52.053Z,8296.00
2019-05-02T07:47:50.326Z,10580.00
2019-05-02T07:48:54.463Z,9716.00
2019-05-02T07:49:50.615Z,9364.00
2019-05-02T07:50:50.124Z,14996.00
2019-05-02T07:51:52.260Z,17568.00
2019-05-02T07:52:52.093Z,11504.00
2019-05-02T07:53:50.303Z,8904.00
2019-05-02T07:54:50.490Z,7224.00
2019-05-02T07:55:50.693Z,6824.00
2019-05-02T07:56:53.296Z,7052.00
2019-05-02T07:57:52.120Z,6732.00
2019-05-02T07:58:51.246Z,7460.00
2019-05-02T07:59:54.956Z,18304.00
2019-05-02T08:00:54.333Z,14708.00
2019-05-02T08:01:52.332Z,15104.00
2019-05-02T08:02:52.345Z,36096.00
2019-05-02T08:03:52.113Z,16832.00
2019-05-02T08:04:52.839Z,14588.00
2019-05-02T08:05:54.504Z,17696.00
2019-05-02T08:06:55.343Z,14292.00
2019-05-02T08:07:55.016Z,10400.00
2019-05-02T08:08:53.931Z,9936.00
2019-05-02T08:09:53.188Z,9764.00
2019-05-02T08:11:01.560Z,9124.00
2019-05-02T08:11:54.568Z,8960.00
2019-05-02T08:12:53.726Z,8260.00
2019-05-02T08:13:55.762Z,9056.00
2019-05-02T08:14:55.008Z,9748.00
2019-05-02T08:15:54.837Z,9808.00
2019-05-02T08:17:05.445Z,9188.00
2019-05-02T08:17:57.331Z,8440.00
2019-05-02T08:18:54.698Z,7344.00
2019-05-02T08:19:54.881Z,7140.00
2019-05-02T08:20:55.957Z,8104.00
2019-05-02T08:21:56.141Z,8372.00
2019-05-02T08:22:55.377Z,10224.00
2019-05-02T08:23:57.249Z,10116.00
2019-05-02T08:24:57.802Z,9504.00
2019-05-02T08:25:56.828Z,12332.00
2019-05-02T08:26:58.268Z,8920.00
2019-05-02T08:27:57.266Z,7716.00
2019-05-02T08:28:56.506Z,8828.00
2019-05-02T08:30:00.057Z,9652.00
2019-05-02T08:30:59.341Z,7692.00
2019-05-02T08:31:56.968Z,8084.00
2019-05-02T08:32:57.835Z,9844.00
2019-05-02T08:33:57.338Z,9152.00
2019-05-02T08:34:58.358Z,8636.00
2019-05-02T08:35:58.331Z,8072.00
2019-05-02T08:36:58.865Z,7132.00
2019-05-02T08:37:59.832Z,7176.00
2019-05-02T08:38:58.358Z,7480.00
2019-05-02T08:39:59.336Z,9880.00
2019-05-02T08:40:58.849Z,12816.00
2019-05-02T08:41:59.347Z,11476.00
2019-05-02T08:43:03.337Z,10348.00
2019-05-02T08:43:59.848Z,8588.00
2019-05-02T08:45:01.135Z,7436.00
2019-05-02T08:46:00.431Z,6836.00
2019-05-02T08:47:00.336Z,6472.00
2019-05-02T08:48:04.838Z,6152.00
2019-05-02T08:49:00.848Z,5888.00
2019-05-02T08:49:59.994Z,5840.00
2019-05-02T08:51:00.346Z,6044.00
2019-05-02T08:52:00.423Z,6120.00
2019-05-02T08:53:01.339Z,6288.00
2019-05-02T08:54:01.333Z,6984.00
2019-05-02T08:55:04.466Z,7776.00
2019-05-02T08:56:03.356Z,7688.00
2019-05-02T08:57:01.185Z,7456.00
2019-05-02T08:58:06.632Z,7600.00
2019-05-02T08:59:02.441Z,7596.00
2019-05-02T09:00:02.343Z,7228.00
2019-05-02T09:01:01.873Z,6700.00
2019-05-02T09:02:02.003Z,6312.00
2019-05-02T09:03:04.699Z,5984.00
2019-05-02T09:04:02.849Z,5984.00
2019-05-02T09:05:04.551Z,6228.00
2019-05-02T09:06:06.078Z,6920.00
2019-05-02T09:07:03.899Z,7516.00
2019-05-02T09:08:03.856Z,8432.00
2019-05-02T09:09:04.844Z,8168.00
2019-05-02T09:10:05.937Z,7304.00
2019-05-02T09:11:04.877Z,6996.00
2019-05-02T09:12:12.136Z,6596.00
2019-05-02T09:13:06.362Z,6312.00
2019-05-02T09:14:04.345Z,6276.00
2019-05-02T09:15:04.850Z,6552.00
2019-05-02T09:16:05.932Z,6968.00
2019-05-02T09:17:13.601Z,7252.00
2019-05-02T09:18:06.859Z,7416.00
2019-05-02T09:19:05.347Z,7384.00
2019-05-02T09:20:14.934Z,6844.00
2019-05-02T09:21:07.077Z,6744.00
2019-05-02T09:22:07.578Z,7044.00
2019-05-02T09:23:07.880Z,7184.00
2019-05-02T09:24:08.334Z,7260.00
2019-05-02T09:25:08.858Z,6908.00
2019-05-02T09:26:06.856Z,6292.00
2019-05-02T09:27:06.849Z,5696.00
2019-05-02T09:28:06.876Z,5184.00
2019-05-02T09:29:06.533Z,4868.00
2019-05-02T09:30:07.361Z,4736.00
2019-05-02T09:31:07.950Z,4720.00
2019-05-02T09:32:07.877Z,4648.00
2019-05-02T09:33:07.390Z,4624.00
2019-05-02T09:34:08.342Z,4904.00
2019-05-02T09:35:07.887Z,5272.00
2019-05-02T09:36:07.820Z,5464.00
2019-05-02T09:37:08.859Z,5772.00
2019-05-02T09:38:08.850Z,6220.00
2019-05-02T09:39:09.357Z,6404.00
2019-05-02T09:40:12.649Z,6780.00
2019-05-02T09:41:18.792Z,6912.00
2019-05-02T09:42:15.191Z,6856.00
2019-05-02T09:43:12.322Z,6972.00
2019-05-02T09:44:14.668Z,7312.00
2019-05-02T09:45:12.343Z,7660.00
2019-05-02T09:46:12.826Z,8184.00
2019-05-02T09:47:12.847Z,8444.00
2019-05-02T09:48:12.558Z,8724.00
2019-05-02T09:49:14.401Z,9088.00
2019-05-02T09:50:12.915Z,10292.00
2019-05-02T09:51:17.213Z,10460.00
2019-05-02T09:52:13.862Z,10192.00
2019-05-02T09:53:20.343Z,10284.00
2019-05-02T09:54:13.385Z,10628.00
2019-05-02T09:55:12.196Z,11532.00
2019-05-02T09:56:13.351Z,13016.00
2019-05-02T09:57:12.117Z,14332.00
2019-05-02T09:58:19.473Z,13568.00
2019-05-02T09:59:26.683Z,12452.00
2019-05-02T10:00:14.372Z,12932.00
2019-05-02T10:01:12.471Z,12160.00
2019-05-02T10:02:13.343Z,10596.00
2019-05-02T10:03:12.796Z,9340.00
2019-05-02T10:04:13.854Z,8576.00
2019-05-02T10:05:13.109Z,8156.00
2019-05-02T10:06:18.065Z,8632.00
2019-05-02T10:07:15.509Z,9160.00
2019-05-02T10:08:15.498Z,9620.00
2019-05-02T10:09:18.572Z,9852.00
2019-05-02T10:10:14.969Z,9588.00
2019-05-02T10:11:17.080Z,9332.00
2019-05-02T10:12:16.225Z,9268.00
2019-05-02T10:13:15.356Z,11052.00
2019-05-02T10:14:15.350Z,12148.00
2019-05-02T10:15:14.761Z,12180.00
2019-05-02T10:16:17.955Z,12876.00
2019-05-02T10:17:18.491Z,13388.00
2019-05-02T10:18:19.542Z,14712.00
2019-05-02T10:19:17.351Z,15948.00
2019-05-02T10:20:15.866Z,21216.00
2019-05-02T10:21:17.152Z,20224.00
2019-05-02T10:22:17.362Z,21120.00
2019-05-02T10:23:19.674Z,19776.00
2019-05-02T10:24:18.357Z,19808.00
2019-05-02T10:25:16.722Z,19264.00
2019-05-02T10:26:20.164Z,18144.00
2019-05-02T10:27:19.031Z,17920.00
2019-05-02T10:28:17.147Z,17632.00
2019-05-02T10:29:22.817Z,17856.00
2019-05-02T10:30:21.604Z,17664.00
2019-05-02T10:31:17.872Z,17728.00
2019-05-02T10:32:17.821Z,18048.00
2019-05-02T10:33:18.852Z,17920.00
2019-05-02T10:34:18.266Z,18592.00
2019-05-02T10:35:18.400Z,16296.00
2019-05-02T10:36:19.799Z,19200.00
2019-05-02T10:37:21.618Z,18848.00
2019-05-02T10:38:19.565Z,17728.00
2019-05-02T10:39:20.091Z,17120.00
2019-05-02T10:40:19.234Z,17376.00
2019-05-02T10:41:19.439Z,16896.00
2019-05-02T10:42:21.977Z,16236.00
2019-05-02T10:43:22.185Z,15916.00
2019-05-02T10:44:22.398Z,15852.00
2019-05-02T10:45:22.383Z,15280.00
2019-05-02T10:46:20.450Z,14196.00
2019-05-02T10:47:22.174Z,13116.00
2019-05-02T10:48:25.839Z,12260.00
2019-05-02T10:49:23.881Z,13692.00
2019-05-02T10:50:22.246Z,12764.00
2019-05-02T10:51:25.968Z,11988.00
2019-05-02T10:52:29.795Z,12632.00
2019-05-02T10:53:23.860Z,12632.00
2019-05-02T10:54:23.124Z,12912.00
2019-05-02T10:55:24.273Z,13684.00
2019-05-02T10:56:23.343Z,13208.00
2019-05-02T10:57:22.508Z,12296.00
2019-05-02T10:58:31.030Z,11788.00
2019-05-02T10:59:24.847Z,11792.00
2019-05-02T11:00:23.070Z,12128.00
2019-05-02T11:01:23.253Z,12548.00
2019-05-02T11:02:23.433Z,12612.00
2019-05-02T11:03:23.616Z,12204.00
2019-05-02T11:04:28.952Z,11636.00
2019-05-02T11:05:26.528Z,11220.00
2019-05-02T11:06:25.220Z,10960.00
2019-05-02T11:07:26.374Z,11120.00
2019-05-02T11:08:25.686Z,10924.00
2019-05-02T11:09:26.421Z,10604.00
2019-05-02T11:10:26.057Z,10368.00
2019-05-02T11:11:25.173Z,10260.00
2019-05-02T11:12:30.240Z,10176.00
2019-05-02T11:13:27.561Z,10260.00
2019-05-02T11:14:25.649Z,10276.00
2019-05-02T11:15:26.860Z,10160.00
2019-05-02T11:16:26.929Z,10028.00
2019-05-02T11:17:26.161Z,9652.00
2019-05-02T11:18:39.512Z,9500.00
2019-05-02T11:19:28.882Z,9968.00
2019-05-02T11:20:27.369Z,10212.00
2019-05-02T11:21:27.870Z,9616.00
2019-05-02T11:22:27.103Z,9248.00
2019-05-02T11:23:27.892Z,9864.00
2019-05-02T11:24:27.458Z,10032.00
2019-05-02T11:25:27.617Z,9888.00
2019-05-02T11:26:27.772Z,9784.00
2019-05-02T11:27:27.930Z,9564.00
2019-05-02T11:28:28.384Z,9500.00
2019-05-02T11:29:28.880Z,9360.00
2019-05-02T11:30:28.899Z,9116.00
2019-05-02T11:31:28.666Z,9136.00
2019-05-02T11:32:28.823Z,8904.00
2019-05-02T11:33:29.050Z,8632.00
2019-05-02T11:34:29.103Z,8604.00
2019-05-02T11:35:29.257Z,8916.00
2019-05-02T11:36:32.620Z,8976.00
2019-05-02T11:37:29.630Z,8884.00
2019-05-02T11:38:30.221Z,8656.00
2019-05-02T11:39:40.504Z,8488.00
2019-05-02T11:40:32.255Z,8420.00
2019-05-02T11:41:31.867Z,8472.00
2019-05-02T11:42:32.336Z,8588.00
2019-05-02T11:43:32.618Z,8472.00
2019-05-02T11:44:32.619Z,8440.00
2019-05-02T11:45:32.441Z,8432.00
2019-05-02T11:46:33.154Z,8180.00
2019-05-02T11:47:33.013Z,8368.00
2019-05-02T11:48:32.500Z,8352.00
2019-05-02T11:49:32.083Z,8892.00
2019-05-02T11:50:35.446Z,8596.00
2019-05-02T11:51:33.879Z,8748.00
2019-05-02T11:52:37.207Z,9152.00
2019-05-02T11:53:34.236Z,7632.00
2019-05-02T11:54:33.413Z,7296.00
2019-05-02T11:55:33.402Z,8540.00
2019-05-02T11:56:33.419Z,7472.00
2019-05-02T11:57:33.246Z,7536.00
2019-05-02T11:58:34.898Z,7516.00
2019-05-02T11:59:34.387Z,8492.00
2019-05-02T12:00:33.502Z,8052.00
2019-05-02T12:01:39.000Z,9056.00
2019-05-02T12:02:35.808Z,8152.00
2019-05-02T12:03:36.939Z,8688.00
2019-05-02T12:04:35.885Z,10592.00
2019-05-02T12:05:35.842Z,10636.00
2019-05-02T12:06:35.584Z,10952.00
2019-05-02T12:07:34.738Z,10820.00
2019-05-02T12:08:39.524Z,10556.00
2019-05-02T12:09:36.898Z,9764.00
2019-05-02T12:10:36.732Z,9452.00
2019-05-02T12:11:36.390Z,9908.00
2019-05-02T12:12:36.373Z,8064.00
2019-05-02T12:13:37.420Z,10116.00
2019-05-02T12:14:36.933Z,10280.00
2019-05-02T12:15:36.068Z,10256.00
2019-05-02T12:16:36.238Z,8624.00
2019-05-02T12:17:36.430Z,9484.00
2019-05-02T12:18:37.403Z,9224.00
2019-05-02T12:19:36.768Z,7652.00
2019-05-02T12:20:36.968Z,7648.00
2019-05-02T12:21:39.248Z,9756.00
2019-05-02T12:22:38.252Z,10496.00
2019-05-02T12:23:37.387Z,10812.00
2019-05-02T12:24:40.892Z,10708.00
2019-05-02T12:25:39.768Z,10532.00
2019-05-02T12:26:37.956Z,10484.00
2019-05-02T12:27:38.080Z,10520.00